Time;durP1;ratioP1;P1;durP2;ratioP2;P2;SDS_P1;SDS_P2;PMS_P1;PMS_P2;Temp;Humidity;BMP_temperature;BMP_pressure;BME280_temperature;BME280_humidity;BME280_pressure;Samples;Min_cycle;Max_cycle;Signal;HPM_P1;HPM_P2
2023/08/20 08:56:20;;;;;;;753.92;689.08;;;20.10;75.80;;;;;;6082621;23;20084;-93
2023/08/20 08:58:46;;;;;;;751.83;688.38;;;20.20;75.90;;;;;;6063035;23;20090;-86
2023/08/20 09:01:14;;;;;;;765.22;700.10;;;20.30;76.00;;;;;;6051937;23;20108;-88
2023/08/20 09:03:42;;;;;;;771.75;707.90;;;20.30;75.90;;;;;;6038613;23;20456;-85
2023/08/20 09:06:09;;;;;;;791.95;723.83;;;20.50;75.40;;;;;;6079167;23;20357;-90
2023/08/20 09:08:38;;;;;;;810.17;739.80;;;20.50;75.30;;;;;;6141473;23;20067;-86
2023/08/20 09:11:04;;;;;;;789.08;719.90;;;20.50;75.40;;;;;;6193393;23;20116;-87
2023/08/20 09:13:41;;;;;;;787.97;720.63;;;20.60;75.20;;;;;;6214830;23;20043;-91
2023/08/20 09:16:09;;;;;;;794.83;728.20;;;20.70;74.10;;;;;;6216728;23;20020;-89
2023/08/20 09:18:40;;;;;;;796.67;730.70;;;20.80;74.60;;;;;;6180366;23;20458;-91
2023/08/20 09:21:10;;;;;;;787.65;722.92;;;20.80;74.20;;;;;;6216846;23;20027;-86
2023/08/20 09:23:37;;;;;;;795.35;728.70;;;20.90;73.70;;;;;;6216775;23;20024;-87
2023/08/20 09:26:05;;;;;;;823.22;751.28;;;21.00;73.90;;;;;;6217080;23;20019;-87
2023/08/20 09:28:41;;;;;;;812.67;743.60;;;21.10;74.00;;;;;;6210388;23;20024;-86
2023/08/20 09:31:10;;;;;;;804.55;737.72;;;21.10;73.90;;;;;;6244660;23;20030;-89
2023/08/20 09:33:36;;;;;;;814.22;744.22;;;21.30;73.70;;;;;;6165181;23;20099;-87
2023/08/20 09:36:11;;;;;;;807.85;741.00;;;21.30;73.10;;;;;;6191986;23;20052;-88
2023/08/20 09:38:38;;;;;;;816.17;748.00;;;21.30;72.50;;;;;;6212616;23;20028;-87
2023/08/20 09:41:08;;;;;;;833.03;762.22;;;21.30;72.60;;;;;;6167977;23;20028;-86
2023/08/20 09:43:38;;;;;;;835.65;764.63;;;21.30;72.10;;;;;;6176865;23;20031;-88
2023/08/20 09:46:10;;;;;;;820.95;752.42;;;21.30;71.90;;;;;;6194423;23;20023;-94
2023/08/20 09:48:41;;;;;;;814.17;744.95;;;21.40;72.20;;;;;;6187264;23;20020;-88
2023/08/20 09:51:16;;;;;;;781.83;717.33;;;21.50;72.50;;;;;;6193012;23;20020;-91
2023/08/20 09:54:38;;;;;;;823.65;755.95;;;21.50;72.00;;;;;;6177650;23;20027;-89
2023/08/20 09:57:09;;;;;;;;;;;21.50;72.10;;;;;;6102819;23;20014;-89
2023/08/20 09:59:36;;;;;;;810.38;741.75;;;21.50;70.20;;;;;;6177132;23;19919;-88
2023/08/20 10:02:02;;;;;;;821.67;751.58;;;21.60;72.30;;;;;;6218812;23;20016;-87
2023/08/20 10:04:29;;;;;;;853.58;779.88;;;21.60;71.10;;;;;;6192452;23;20055;-91
2023/08/20 10:06:59;;;;;;;834.80;762.17;;;21.70;70.60;;;;;;6191053;23;20081;-92
2023/08/20 10:09:29;;;;;;;837.90;766.63;;;21.70;69.60;;;;;;6225718;23;20016;-94
2023/08/20 10:12:01;;;;;;;832.17;760.95;;;21.70;69.60;;;;;;6225709;23;20036;-91
2023/08/20 10:14:28;;;;;;;830.35;762.42;;;21.70;69.40;;;;;;6158600;23;20023;-91
2023/08/20 10:16:54;;;;;;;834.60;763.38;;;21.70;69.60;;;;;;6196681;23;20012;-87
2023/08/20 10:19:20;;;;;;;817.92;750.55;;;21.70;69.20;;;;;;6211042;23;20024;-88
2023/08/20 10:22:13;;;;;;;834.90;762.92;;;21.80;69.30;;;;;;6229450;23;20016;-91
2023/08/20 10:24:59;;;;;;;834.92;763.75;;;21.90;68.90;;;;;;6199889;23;20028;-88
2023/08/20 10:27:33;;;;;;;825.00;754.45;;;21.90;68.10;;;;;;6221332;23;20043;-86
2023/08/20 10:30:07;;;;;;;828.00;756.13;;;22.00;68.60;;;;;;6175001;23;20016;-87
2023/08/20 10:32:58;;;;;;;824.20;755.58;;;22.00;68.60;;;;;;6162687;23;20013;-88
2023/08/20 10:36:28;;;;;;;802.47;734.72;;;22.10;68.30;;;;;;6196828;23;20017;-88
2023/08/20 10:38:47;;;;;;;842.30;768.10;;;22.10;68.90;;;;;;6212944;23;20020;-87
2023/08/20 10:41:14;;;;;;;854.88;780.38;;;22.20;69.40;;;;;;6194067;23;20103;-88
2023/08/20 10:43:46;;;;;;;799.70;732.30;;;22.30;68.70;;;;;;6169777;23;20096;-86
2023/08/20 10:47:04;;;;;;;811.83;743.15;;;22.40;68.30;;;;;;6193910;23;20017;-91
2023/08/20 10:49:31;;;;;;;779.67;715.15;;;22.30;66.70;;;;;;6176585;23;20021;-86
2023/08/20 10:52:06;;;;;;;809.90;741.80;;;22.20;67.60;;;;;;6160985;23;20472;-90
2023/08/20 10:54:32;;;;;;;804.53;737.30;;;22.20;66.10;;;;;;6143059;23;20025;-87
2023/08/20 10:56:59;;;;;;;807.55;740.70;;;22.20;67.00;;;;;;6169500;23;20024;-89
2023/08/20 10:59:30;;;;;;;798.67;731.80;;;22.20;67.30;;;;;;6144420;23;20068;-86
2023/08/20 11:01:58;;;;;;;795.65;729.30;;;22.20;67.10;;;;;;6194221;23;20374;-88
2023/08/20 11:04:40;;;;;;;840.00;768.45;;;22.20;67.40;;;;;;6169079;23;20032;-87
2023/08/20 11:07:09;;;;;;;794.45;727.80;;;22.30;67.80;;;;;;6146799;23;20020;-90
2023/08/20 11:09:57;;;;;;;779.47;714.17;;;22.20;66.60;;;;;;6166554;23;20517;-88
2023/08/20 11:12:24;;;;;;;837.40;766.80;;;22.20;67.60;;;;;;6163149;23;20277;-89
2023/08/20 11:14:49;;;;;;;781.08;717.28;;;22.20;68.10;;;;;;6166574;23;20119;-88
2023/08/20 11:17:17;;;;;;;807.92;740.58;;;22.20;67.40;;;;;;6132341;23;20058;-89
2023/08/20 11:19:44;;;;;;;798.67;734.25;;;22.20;66.80;;;;;;6191113;23;20048;-91
2023/08/20 11:22:10;;;;;;;778.40;714.85;;;22.10;66.70;;;;;;6189509;23;20100;-87
2023/08/20 11:24:38;;;;;;;794.53;727.42;;;22.10;67.00;;;;;;6165042;23;20086;-85
2023/08/20 11:27:04;;;;;;;789.33;723.67;;;22.00;67.40;;;;;;6182338;23;20012;-89
2023/08/20 11:29:32;;;;;;;794.75;727.88;;;22.10;67.30;;;;;;6154434;23;20024;-88
2023/08/20 11:32:14;;;;;;;782.88;719.83;;;22.20;67.30;;;;;;6188844;23;20072;-88
2023/08/20 11:34:43;;;;;;;765.13;703.63;;;22.30;67.00;;;;;;6189403;23;20021;-87
2023/08/20 11:37:11;;;;;;;801.50;734.95;;;22.30;66.60;;;;;;6137650;23;20206;-88
2023/08/20 11:39:47;;;;;;;865.22;790.95;;;22.50;66.70;;;;;;6167997;23;20017;-87
2023/08/20 11:42:13;;;;;;;832.08;764.95;;;22.50;66.40;;;;;;6175586;23;20095;-88
2023/08/20 11:44:44;;;;;;;839.90;767.95;;;22.60;65.80;;;;;;6144155;23;20522;-87
2023/08/20 11:47:19;;;;;;;806.25;740.05;;;22.70;66.00;;;;;;6167163;23;20096;-88
2023/08/20 11:49:50;;;;;;;818.85;750.38;;;22.80;65.80;;;;;;6171046;23;20064;-88
2023/08/20 11:52:20;;;;;;;806.72;740.60;;;22.80;65.80;;;;;;6130772;23;20076;-87
2023/08/20 11:54:48;;;;;;;813.28;746.20;;;22.90;65.40;;;;;;6194237;23;20029;-89
2023/08/20 11:57:18;;;;;;;822.42;752.83;;;23.00;65.50;;;;;;6119053;23;20027;-88
2023/08/20 11:59:44;;;;;;;850.30;777.63;;;23.10;65.50;;;;;;6188615;23;20662;-88
2023/08/20 12:02:10;;;;;;;822.28;754.60;;;23.20;65.30;;;;;;6164787;23;20043;-88
2023/08/20 12:04:49;;;;;;;887.33;810.00;;;23.20;64.90;;;;;;6165801;23;20048;-89
2023/08/20 12:07:15;;;;;;;852.50;778.78;;;23.20;62.70;;;;;;6143009;23;20021;-90
2023/08/20 12:09:45;;;;;;;843.25;773.38;;;23.10;63.80;;;;;;6168676;23;20024;-86
2023/08/20 12:12:11;;;;;;;846.03;771.38;;;23.10;63.70;;;;;;6164046;23;20020;-86
2023/08/20 12:14:42;;;;;;;892.30;813.58;;;23.10;64.00;;;;;;6190337;23;20028;-93
2023/08/20 12:17:08;;;;;;;876.63;799.42;;;23.20;63.50;;;;;;6158793;23;20016;-87
2023/08/20 12:19:34;;;;;;;843.70;772.20;;;23.20;64.00;;;;;;6166690;23;20024;-86
2023/08/20 12:21:59;;;;;;;828.80;756.92;;;23.30;64.30;;;;;;6192520;23;20023;-87
2023/08/20 12:24:29;;;;;;;901.75;821.42;;;23.40;64.70;;;;;;6166926;23;20029;-88
2023/08/20 12:26:57;;;;;;;850.72;775.50;;;23.50;64.40;;;;;;6135959;23;20012;-92
2023/08/20 12:29:23;;;;;;;902.33;820.50;;;23.60;64.10;;;;;;6165061;23;20469;-87
2023/08/20 12:31:49;;;;;;;885.35;806.17;;;23.60;64.10;;;;;;6141572;23;20402;-87
2023/08/20 12:34:21;;;;;;;848.65;775.22;;;23.60;63.90;;;;;;6148766;23;20031;-89
2023/08/20 12:36:47;;;;;;;850.17;776.85;;;23.60;63.40;;;;;;6161590;23;20017;-92
2023/08/20 12:39:14;;;;;;;882.28;801.90;;;23.50;63.40;;;;;;6136897;23;20017;-88
2023/08/20 12:41:39;;;;;;;847.47;777.20;;;23.40;62.80;;;;;;6105569;23;20048;-85
2023/08/20 12:44:06;;;;;;;902.35;820.88;;;23.30;63.00;;;;;;6188384;23;20024;-87
2023/08/20 12:46:32;;;;;;;894.33;812.45;;;23.30;63.40;;;;;;6139563;23;20024;-91
2023/08/20 12:48:58;;;;;;;888.13;809.00;;;23.30;63.60;;;;;;6148840;23;20071;-88
2023/08/20 12:51:23;;;;;;;865.00;789.22;;;23.40;63.50;;;;;;6190593;23;20024;-90
2023/08/20 12:53:50;;;;;;;888.58;810.10;;;23.40;63.30;;;;;;6188594;23;20077;-86
2023/08/20 12:56:16;;;;;;;857.85;784.00;;;23.30;63.70;;;;;;6189521;23;20199;-91
2023/08/20 12:58:42;;;;;;;875.47;799.88;;;23.20;63.90;;;;;;6160351;23;20021;-88
2023/08/20 13:01:08;;;;;;;895.42;813.88;;;23.20;63.60;;;;;;6165586;23;20079;-87
2023/08/20 13:03:38;;;;;;;875.80;798.60;;;23.10;63.40;;;;;;6188752;23;20024;-91
2023/08/20 13:06:05;;;;;;;870.83;797.20;;;23.00;63.50;;;;;;6165891;23;20743;-90
2023/08/20 13:08:34;;;;;;;863.10;788.95;;;23.00;63.70;;;;;;6135058;23;20016;-88
2023/08/20 13:11:03;;;;;;;904.28;821.70;;;23.10;63.80;;;;;;6166308;23;20021;-87
2023/08/20 13:13:34;;;;;;;868.33;791.95;;;23.10;63.60;;;;;;6174060;23;20458;-91
2023/08/20 13:16:01;;;;;;;844.65;769.97;;;23.10;63.20;;;;;;6216841;23;20389;-85
2023/08/20 13:18:28;;;;;;;880.67;803.03;;;23.20;64.30;;;;;;6141485;23;20059;-88
2023/08/20 13:20:54;;;;;;;883.92;807.33;;;23.20;64.10;;;;;;6162739;23;20017;-87
2023/08/20 13:23:20;;;;;;;894.00;815.42;;;23.30;63.40;;;;;;6164852;23;20031;-86
2023/08/20 13:25:49;;;;;;;890.53;810.70;;;23.40;63.60;;;;;;6165254;23;20017;-90
2023/08/20 13:28:15;;;;;;;857.30;782.28;;;23.50;62.70;;;;;;6101980;23;20024;-88
2023/08/20 13:30:44;;;;;;;873.35;797.20;;;23.50;63.00;;;;;;6165722;23;20024;-90
2023/08/20 13:33:12;;;;;;;877.03;799.75;;;23.50;63.00;;;;;;6164306;23;20020;-87
2023/08/20 13:35:38;;;;;;;899.13;819.40;;;23.50;63.60;;;;;;6142699;23;20028;-94
2023/08/20 13:38:07;;;;;;;866.35;790.47;;;23.50;63.80;;;;;;6159672;23;20025;-87
2023/08/20 13:40:33;;;;;;;904.28;821.03;;;23.60;64.10;;;;;;6216969;23;20019;-87
2023/08/20 13:43:09;;;;;;;874.50;799.08;;;23.60;63.70;;;;;;6160994;23;20297;-88
2023/08/20 13:45:35;;;;;;;850.25;774.88;;;23.60;62.10;;;;;;6165721;23;20032;-87
2023/08/20 13:48:00;;;;;;;895.78;814.28;;;23.60;62.70;;;;;;6134371;23;20025;-86
2023/08/20 13:50:26;;;;;;;887.40;810.28;;;23.60;62.40;;;;;;6190791;23;20017;-88
2023/08/20 13:52:53;;;;;;;866.00;790.85;;;23.50;62.80;;;;;;6189812;23;20052;-85
2023/08/20 13:55:19;;;;;;;876.83;798.53;;;23.40;62.90;;;;;;6165999;23;20020;-84
2023/08/20 13:57:47;;;;;;;838.28;765.25;;;23.30;63.30;;;;;;6157588;23;20443;-86
2023/08/20 14:00:13;;;;;;;897.35;816.45;;;23.20;63.40;;;;;;6214961;23;20017;-86
2023/08/20 14:02:39;;;;;;;861.00;782.85;;;23.30;63.90;;;;;;6162481;23;20016;-85
2023/08/20 14:05:06;;;;;;;878.97;800.33;;;23.40;63.80;;;;;;6163548;23;20021;-82
2023/08/20 14:07:34;;;;;;;868.97;791.70;;;23.50;63.70;;;;;;6153619;23;20015;-84
2023/08/20 14:10:01;;;;;;;886.40;809.63;;;23.50;63.70;;;;;;6189298;23;20473;-84
2023/08/20 14:12:27;;;;;;;891.22;813.05;;;23.60;63.80;;;;;;6161443;23;20016;-87
2023/08/20 14:14:53;;;;;;;878.60;800.90;;;23.60;63.40;;;;;;6164113;23;20031;-85
2023/08/20 14:17:19;;;;;;;893.15;812.83;;;23.60;63.30;;;;;;6130261;23;20009;-85
2023/08/20 14:19:44;;;;;;;882.28;806.60;;;23.60;63.70;;;;;;6161989;23;20099;-84
2023/08/20 14:22:10;;;;;;;914.63;831.47;;;23.70;64.10;;;;;;6161020;23;20016;-86
2023/08/20 14:24:36;;;;;;;864.17;788.63;;;23.80;63.90;;;;;;6163156;23;20020;-85
2023/08/20 14:27:02;;;;;;;839.53;768.08;;;23.70;63.60;;;;;;6178405;23;20050;-84
2023/08/20 14:29:28;;;;;;;885.83;807.08;;;23.60;63.70;;;;;;6162556;23;20070;-84
2023/08/20 14:31:54;;;;;;;895.45;814.65;;;23.60;63.70;;;;;;6187499;23;20020;-86
2023/08/20 14:34:20;;;;;;;878.88;801.60;;;23.60;63.30;;;;;;6185033;23;20031;-85
2023/08/20 14:36:45;;;;;;;864.33;786.53;;;23.70;63.60;;;;;;6180901;23;20155;-88
2023/08/20 14:39:11;;;;;;;876.97;798.47;;;23.80;63.10;;;;;;6161656;23;20020;-86
2023/08/20 14:41:39;;;;;;;879.92;803.40;;;24.00;63.10;;;;;;6186478;23;20022;-90
2023/08/20 14:44:05;;;;;;;878.78;801.20;;;24.10;62.40;;;;;;6160724;23;20025;-87
2023/08/20 14:46:33;;;;;;;880.35;799.53;;;24.20;62.60;;;;;;6182452;23;20639;-90
2023/08/20 14:49:02;;;;;;;829.83;756.78;;;24.20;61.90;;;;;;6153949;23;20017;-85
2023/08/20 14:51:28;;;;;;;855.10;779.72;;;24.00;62.40;;;;;;6186423;23;20024;-88
2023/08/20 14:53:56;;;;;;;850.58;776.03;;;24.20;62.10;;;;;;6161050;23;20024;-88
2023/08/20 14:56:23;;;;;;;882.35;804.55;;;24.20;62.10;;;;;;6183081;23;20070;-90
2023/08/20 14:58:49;;;;;;;865.58;788.55;;;24.10;62.00;;;;;;6157496;23;20017;-84
2023/08/20 15:01:16;;;;;;;876.47;798.85;;;24.20;62.40;;;;;;6186948;23;20012;-89
2023/08/20 15:03:42;;;;;;;895.22;815.33;;;24.10;62.40;;;;;;6160599;23;20024;-86
2023/08/20 15:06:07;;;;;;;845.58;773.40;;;24.20;62.20;;;;;;6185762;23;20020;-89
2023/08/20 15:08:33;;;;;;;872.35;794.75;;;24.40;62.40;;;;;;6154023;23;20466;-88
2023/08/20 15:11:01;;;;;;;886.13;807.67;;;24.40;61.20;;;;;;6162318;23;20020;-85
2023/08/20 15:13:27;;;;;;;863.80;788.20;;;24.20;61.60;;;;;;6160336;23;20031;-89
2023/08/20 15:15:53;;;;;;;874.83;797.55;;;24.20;61.70;;;;;;6162381;23;20078;-87
2023/08/20 15:18:19;;;;;;;873.90;796.83;;;24.20;61.80;;;;;;6178034;23;20016;-86
2023/08/20 15:20:46;;;;;;;864.83;790.78;;;24.10;61.60;;;;;;6161542;23;20296;-84
2023/08/20 15:23:11;;;;;;;868.13;791.83;;;23.90;61.90;;;;;;6185664;23;20017;-88
2023/08/20 15:25:37;;;;;;;844.95;770.85;;;23.80;62.40;;;;;;6186974;23;20043;-86
2023/08/20 15:28:03;;;;;;;862.35;787.90;;;24.00;62.70;;;;;;6152143;23;20040;-89
2023/08/20 15:30:29;;;;;;;904.83;822.20;;;24.10;62.40;;;;;;6186044;23;20024;-87
2023/08/20 15:32:55;;;;;;;855.90;780.75;;;24.20;62.20;;;;;;6160935;23;20046;-86
2023/08/20 15:35:21;;;;;;;882.72;804.92;;;24.40;62.10;;;;;;6187065;23;20057;-87
2023/08/20 15:37:47;;;;;;;897.95;812.67;;;24.40;62.30;;;;;;6155300;23;20016;-88
2023/08/20 15:40:15;;;;;;;843.63;767.88;;;24.50;61.50;;;;;;6140217;23;20012;-89
2023/08/20 15:42:41;;;;;;;834.95;759.83;;;24.40;60.90;;;;;;6159940;23;20043;-83
2023/08/20 15:45:08;;;;;;;872.95;794.10;;;24.40;61.00;;;;;;6185322;23;20092;-87
2023/08/20 15:47:33;;;;;;;896.05;807.50;;;24.30;61.10;;;;;;6177018;23;20379;-87
2023/08/20 15:49:59;;;;;;;897.65;815.17;;;24.20;60.90;;;;;;6162221;23;20091;-87
2023/08/20 15:52:25;;;;;;;901.90;819.53;;;24.20;60.90;;;;;;6144335;23;20024;-86
2023/08/20 15:54:51;;;;;;;874.13;795.92;;;24.20;60.70;;;;;;6161992;23;20435;-86
2023/08/20 15:57:16;;;;;;;881.30;801.25;;;24.00;60.90;;;;;;6151924;23;20056;-86
2023/08/20 15:59:42;;;;;;;849.15;772.63;;;24.20;61.40;;;;;;6150042;23;20013;-87
2023/08/20 16:02:11;;;;;;;866.47;791.15;;;24.10;61.20;;;;;;6183911;23;20386;-87
2023/08/20 16:04:37;;;;;;;859.67;784.20;;;24.20;61.10;;;;;;6185851;23;20245;-85
2023/08/20 16:07:04;;;;;;;856.53;782.92;;;24.20;61.30;;;;;;6177610;23;20017;-89
2023/08/20 16:09:29;;;;;;;856.35;780.20;;;24.20;61.40;;;;;;6212257;23;20380;-86
2023/08/20 16:11:55;;;;;;;844.05;769.92;;;24.20;61.40;;;;;;6185838;23;20017;-88
2023/08/20 16:14:23;;;;;;;896.35;814.67;;;24.20;61.50;;;;;;6184845;23;20020;-86
2023/08/20 16:16:52;;;;;;;849.60;772.85;;;24.20;61.80;;;;;;6178615;23;20016;-89
2023/08/20 16:19:20;;;;;;;826.55;755.33;;;24.30;61.80;;;;;;6184175;23;20485;-86
2023/08/20 16:21:49;;;;;;;861.72;784.28;;;24.40;61.70;;;;;;6163395;23;20031;-89
2023/08/20 16:24:17;;;;;;;874.13;798.05;;;24.30;61.80;;;;;;6168771;23;20025;-89
2023/08/20 16:26:46;;;;;;;858.10;783.08;;;24.20;61.30;;;;;;6149507;23;20004;-91
2023/08/20 16:29:11;;;;;;;898.25;814.70;;;24.00;62.00;;;;;;6161000;23;20108;-86
2023/08/20 16:31:39;;;;;;;883.15;803.13;;;24.10;61.80;;;;;;6162156;23;20040;-86
2023/08/20 16:34:05;;;;;;;865.45;789.08;;;24.10;61.70;;;;;;6185037;23;20028;-86
2023/08/20 16:36:33;;;;;;;861.53;786.35;;;24.20;61.60;;;;;;6158397;23;20596;-93
2023/08/20 16:39:04;;;;;;;862.95;789.17;;;24.00;61.50;;;;;;6136080;23;20047;-87
2023/08/20 16:41:30;;;;;;;;;;;24.00;61.70;;;;;;6187033;23;20025;-94
2023/08/20 16:43:59;;;;;;;867.75;790.20;;;23.90;61.00;;;;;;6160560;23;19920;-89
2023/08/20 16:46:28;;;;;;;877.75;798.50;;;23.80;61.50;;;;;;6158653;23;20558;-92
2023/08/20 16:48:56;;;;;;;827.53;754.35;;;23.80;61.70;;;;;;6182337;23;20032;-88
2023/08/20 16:51:22;;;;;;;882.33;799.33;;;23.70;61.80;;;;;;6186773;23;20087;-88
2023/08/20 16:53:48;;;;;;;892.33;809.13;;;23.60;61.90;;;;;;6121489;23;20039;-86
2023/08/20 16:56:16;;;;;;;837.05;761.78;;;23.60;62.00;;;;;;6160446;23;20045;-88
2023/08/20 16:58:42;;;;;;;814.35;742.67;;;23.60;62.20;;;;;;6181361;23;20027;-86
2023/08/20 17:01:10;;;;;;;912.78;826.90;;;23.60;62.00;;;;;;6161175;23;20334;-83
2023/08/20 17:03:36;;;;;;;899.72;815.10;;;23.60;61.70;;;;;;6173487;23;20020;-90
2023/08/20 17:06:04;;;;;;;868.15;785.83;;;23.60;61.90;;;;;;6151813;23;20110;-85
2023/08/20 17:08:30;;;;;;;970.72;873.67;;;23.50;61.40;;;;;;6152522;23;20020;-84
2023/08/20 17:11:06;;;;;;;869.05;788.90;;;23.40;60.80;;;;;;6161197;23;20020;-84
2023/08/20 17:13:33;;;;;;;897.67;815.40;;;23.30;60.20;;;;;;6184957;23;20016;-84
2023/08/20 17:15:59;;;;;;;896.50;814.80;;;23.20;60.70;;;;;;6162103;23;20494;-88
2023/08/20 17:18:24;;;;;;;894.65;814.70;;;23.10;60.80;;;;;;6184026;23;20100;-87
2023/08/20 17:20:50;;;;;;;867.40;789.55;;;23.10;60.90;;;;;;6164592;23;20020;-87
2023/08/20 17:23:16;;;;;;;874.85;797.20;;;23.00;60.80;;;;;;6187785;23;20126;-87
2023/08/20 17:25:42;;;;;;;867.85;789.40;;;22.80;61.10;;;;;;6165008;23;20019;-86
2023/08/20 17:28:11;;;;;;;874.13;794.47;;;22.80;61.40;;;;;;6167392;23;20343;-88
2023/08/20 17:30:39;;;;;;;860.28;784.97;;;22.80;61.40;;;;;;6189303;23;20347;-90
2023/08/20 17:33:09;;;;;;;870.50;791.65;;;22.70;61.50;;;;;;6173123;23;20020;-86
2023/08/20 17:35:35;;;;;;;889.10;806.45;;;22.60;61.90;;;;;;6214075;23;20044;-87
2023/08/20 17:38:01;;;;;;;880.13;798.10;;;22.60;62.10;;;;;;6159420;23;20020;-87
2023/08/20 17:40:30;;;;;;;856.72;778.97;;;22.50;62.20;;;;;;6148688;23;20432;-87
2023/08/20 17:42:59;;;;;;;862.42;782.50;;;22.50;62.40;;;;;;6159557;23;20120;-92
2023/08/20 17:45:28;;;;;;;919.40;834.15;;;22.40;62.70;;;;;;6164232;23;20017;-89
2023/08/20 17:47:53;;;;;;;876.70;794.45;;;22.30;63.00;;;;;;6156971;23;20021;-89
2023/08/20 17:50:22;;;;;;;879.63;795.97;;;22.20;63.30;;;;;;6163129;23;20407;-89
2023/08/20 17:52:51;;;;;;;909.55;821.92;;;22.20;63.40;;;;;;6144056;23;20016;-92
2023/08/20 17:55:16;;;;;;;858.47;778.95;;;22.10;63.70;;;;;;6153014;23;20027;-89
2023/08/20 17:57:45;;;;;;;927.10;837.13;;;22.00;63.90;;;;;;6136197;23;20021;-90
2023/08/20 18:00:14;;;;;;;933.22;839.40;;;21.90;64.20;;;;;;6166637;23;20013;-89
2023/08/20 18:02:43;;;;;;;914.53;826.28;;;21.90;64.40;;;;;;6152771;23;20067;-89
2023/08/20 18:05:11;;;;;;;902.17;817.60;;;21.70;64.60;;;;;;6189660;23;20374;-88
2023/08/20 18:07:38;;;;;;;931.05;837.45;;;21.70;64.90;;;;;;6160766;23;20013;-88
2023/08/20 18:10:07;;;;;;;875.63;795.55;;;21.50;65.10;;;;;;6165374;23;20017;-90
2023/08/20 18:12:33;;;;;;;931.58;836.00;;;21.50;65.20;;;;;;6161337;23;20021;-88
2023/08/20 18:15:02;;;;;;;919.97;828.30;;;21.40;65.40;;;;;;6162767;23;20643;-90
2023/08/20 18:17:28;;;;;;;921.25;829.78;;;21.40;65.80;;;;;;6143646;23;20020;-89
2023/08/20 18:19:56;;;;;;;844.35;771.35;;;21.30;66.00;;;;;;6186430;23;20024;-91
2023/08/20 18:22:25;;;;;;;893.55;806.97;;;21.20;66.20;;;;;;6118222;23;20429;-90
2023/08/20 18:24:52;;;;;;;916.15;824.15;;;21.10;66.40;;;;;;6186493;23;20017;-90
2023/08/20 18:27:22;;;;;;;894.75;808.47;;;21.10;66.60;;;;;;6153513;23;20228;-93
2023/08/20 18:29:48;;;;;;;816.30;744.37;;;21.00;66.80;;;;;;6186176;23;20032;-90
2023/08/20 18:32:16;;;;;;;888.90;805.13;;;20.90;67.00;;;;;;6142238;23;20391;-93
2023/08/20 18:34:44;;;;;;;861.08;780.25;;;20.80;67.10;;;;;;6150290;23;20021;-90
2023/08/20 18:37:13;;;;;;;871.10;788.75;;;20.70;67.20;;;;;;6205498;23;20023;-89
2023/08/20 18:39:39;;;;;;;849.53;773.90;;;20.60;67.50;;;;;;6161626;23;20027;-90
2023/08/20 18:42:09;;;;;;;862.10;785.65;;;20.60;67.60;;;;;;6157375;23;20331;-90
2023/08/20 18:44:37;;;;;;;849.10;775.03;;;20.50;67.50;;;;;;6138023;23;20058;-91
2023/08/20 18:47:03;;;;;;;883.65;800.08;;;20.50;67.50;;;;;;6159522;23;20012;-91
2023/08/20 18:53:53;;;;;;;934.95;838.75;;;20.40;67.50;;;;;;6015830;23;20030;-93
2023/08/20 18:57:32;;;;;;;835.58;762.28;;;20.30;67.50;;;;;;6061773;23;20126;-94
2023/08/20 19:08:11;;;;;;;;;;;;;;;;;;;;;
2023/08/20 19:29:20;;;;;;;;;;;;;;;;;;;;;
2023/08/20 19:32:30;;;;;;;858.80;773.35;;;19.10;69.50;;;;;;6218393;23;20012;-92
2023/08/20 19:36:28;;;;;;;;;;;;;;;;;;;;;
2023/08/20 19:39:20;;;;;;;829.85;759.08;;;19.10;69.50;;;;;;6060194;23;20027;-92
2023/08/20 19:41:55;;;;;;;866.10;785.08;;;19.00;69.70;;;;;;6156103;23;20482;-93
2023/08/20 19:44:27;;;;;;;798.83;731.63;;;18.90;69.90;;;;;;6021323;23;20465;-92
2023/08/20 19:47:29;;;;;;;834.70;759.42;;;18.90;70.20;;;;;;6104673;23;20028;-93
2023/08/20 19:50:16;;;;;;;805.42;738.30;;;18.80;70.30;;;;;;6091493;23;20032;-93
2023/08/20 19:52:52;;;;;;;835.13;762.80;;;18.80;70.70;;;;;;6067447;23;20426;-92
2023/08/20 19:55:38;;;;;;;809.58;740.03;;;18.70;70.90;;;;;;6122766;23;20025;-93
2023/08/20 19:59:02;;;;;;;;;;;;;;;;;;;;;
2023/08/20 20:02:22;;;;;;;781.60;712.17;;;18.60;71.30;;;;;;6054463;23;20030;-92
2023/08/20 20:04:54;;;;;;;829.22;756.85;;;18.50;71.30;;;;;;6053332;23;20061;-92
2023/08/20 20:11:23;;;;;;;819.97;749.70;;;18.40;71.40;;;;;;6059098;23;20034;-94
2023/08/20 20:14:20;;;;;;;768.58;701.28;;;18.40;71.50;;;;;;6015604;23;20026;-94
2023/08/20 20:16:48;;;;;;;791.60;726.33;;;18.30;71.60;;;;;;6291367;22;20405;-93
2023/08/20 20:19:42;;;;;;;770.58;708.10;;;18.20;71.80;;;;;;6212275;22;20032;-94
2023/08/20 20:22:18;;;;;;;723.38;666.25;;;18.10;72.10;;;;;;6191650;22;20023;-93
2023/08/20 20:28:45;;;;;;;;;;;;;;;;;;;;;
2023/08/20 20:31:15;;;;;;;734.55;676.85;;;17.80;73.10;;;;;;6269554;22;20023;-93
2023/08/20 20:33:59;;;;;;;;;;;;;;;;;;;;;
2023/08/20 20:36:55;;;;;;;731.42;674.00;;;17.60;72.90;;;;;;6270921;22;20007;-95
2023/08/20 20:39:41;;;;;;;720.10;663.47;;;17.50;73.00;;;;;;6231565;22;20023;-95
2023/08/20 20:45:56;;;;;;;730.22;672.17;;;17.40;73.40;;;;;;6131334;23;20057;-94
2023/08/20 20:49:03;;;;;;;;;;;;;;;;;;;;;
2023/08/20 20:57:58;;;;;;;;;;;;;;;;;;;;;
2023/08/20 21:00:50;;;;;;;715.05;657.83;;;16.90;74.10;;;;;;6139276;22;20017;-94
2023/08/20 21:03:45;;;;;;;711.20;655.10;;;16.70;74.00;;;;;;6201875;22;20025;-92
2023/08/20 21:06:34;;;;;;;720.00;661.22;;;16.60;74.00;;;;;;6257040;22;20445;-95
2023/08/20 21:09:47;;;;;;;748.33;689.13;;;16.50;74.00;;;;;;6255752;22;20018;-92
2023/08/20 21:15:43;;;;;;;716.95;659.47;;;16.30;74.10;;;;;;6194441;22;20063;-93
2023/08/20 21:18:11;;;;;;;718.33;661.15;;;16.20;74.20;;;;;;6155761;23;20493;-92
2023/08/20 21:20:45;;;;;;;677.97;622.60;;;16.10;74.40;;;;;;6189469;23;20016;-94
2023/08/20 21:23:29;;;;;;;713.85;657.38;;;16.10;74.70;;;;;;6156279;23;20027;-92
2023/08/20 21:26:09;;;;;;;;;;;;;;;;;;;;;
2023/08/20 21:28:58;;;;;;;;;;;;;;;;;;;;;
2023/08/20 21:31:48;;;;;;;704.05;649.25;;;16.00;74.80;;;;;;6234258;22;20022;-94
2023/08/20 21:34:20;;;;;;;682.47;628.35;;;15.90;74.70;;;;;;6212685;22;20026;-93
2023/08/20 21:36:49;;;;;;;703.58;648.95;;;15.80;74.70;;;;;;6247426;22;20072;-95
2023/08/20 21:39:24;;;;;;;706.17;651.35;;;15.80;74.90;;;;;;6278328;22;20015;-94
2023/08/20 21:45:48;;;;;;;670.13;617.42;;;15.70;75.40;;;;;;6159981;22;20030;-93
2023/08/20 21:48:22;;;;;;;668.50;616.53;;;15.60;75.30;;;;;;6211606;22;20042;-94
2023/08/20 21:51:02;;;;;;;728.15;663.10;;;15.50;75.30;;;;;;6235643;22;20023;-93
2023/08/20 21:53:35;;;;;;;668.47;615.90;;;15.50;75.20;;;;;;6231362;22;20075;-93
2023/08/20 21:56:17;;;;;;;641.17;585.40;;;15.40;75.20;;;;;;6257841;22;20019;-94
2023/08/20 21:59:10;;;;;;;720.15;656.50;;;15.40;75.40;;;;;;6232911;22;20039;-94
2023/08/20 22:01:36;;;;;;;689.53;628.17;;;15.40;75.50;;;;;;6277741;22;20019;-93
2023/08/20 22:04:11;;;;;;;706.53;644.42;;;15.30;75.70;;;;;;6255927;22;20449;-94
2023/08/20 22:06:57;;;;;;;701.10;639.53;;;15.30;75.80;;;;;;6298799;22;20015;-93
2023/08/20 22:12:33;;;;;;;778.53;708.10;;;15.20;76.20;;;;;;6254758;22;20672;-93
2023/08/20 22:15:09;;;;;;;731.67;668.75;;;15.00;76.10;;;;;;6272647;22;20022;-94
2023/08/20 22:17:56;;;;;;;688.45;628.60;;;15.00;76.10;;;;;;6217530;22;20094;-93
2023/08/20 22:20:32;;;;;;;;;;;;;;;;;;;;;
2023/08/20 22:23:31;;;;;;;727.72;660.33;;;15.10;76.00;;;;;;6255622;22;20042;-94
2023/08/20 22:26:32;;;;;;;760.88;691.83;;;15.10;76.30;;;;;;6290096;22;20023;-95
2023/08/20 22:29:21;;;;;;;;;;;;;;;;;;;;;
2023/08/20 22:32:20;;;;;;;;;;;;;;;;;;;;;
2023/08/20 22:35:11;;;;;;;786.55;711.60;;;15.20;77.10;;;;;;6221688;22;20031;-93
2023/08/20 22:37:59;;;;;;;818.58;736.08;;;15.20;77.30;;;;;;6242008;22;21019;-92
2023/08/20 22:40:28;;;;;;;776.47;704.72;;;15.20;77.10;;;;;;6248803;22;20341;-93
2023/08/20 22:42:57;;;;;;;729.88;662.85;;;15.10;77.00;;;;;;6232866;22;20454;-93
2023/08/20 22:48:23;;;;;;;783.72;707.40;;;15.20;77.30;;;;;;6224606;22;20077;-94